x

8419317 - Wells, Me (welm1) Weather Station

5:30 - Mon 30th May 2016 All times are EDT. -4 hours from GMT.

  • Wind
    10mph, 13mph gusts
  • Sea Temp 52°f
  • Ar Temp 57°f
  • Sea Pressure 1010.7mb
  • 8419317 - Wells, Me
  • 8419317 - Wells, Me

More Historic Weather Station data

Upgrade to MSW Pro to gain access to the past 30 days of data for over 8000 Wavebouys and Weather Stations around the globe.

Join Pro

Comparision Forecast

View Surf forecast
   
Seg 05/30 5:30 10 13 mph 1010.7mb 52f 57f
5:24 9 13 mph 1010.7mb 52f 57f
5:18 11 14 mph 1010.8mb 52f 57f
5:12 11 14 mph 1010.8mb 52f 57f
5:06 10 16 mph 1010.9mb 52f 57f
5:00 15 18 mph 1010.9mb 52f 57f
4:54 17 21 mph 1010.9mb 52f 58f
4:48 16 21 mph 1010.9mb 52f 58f
4:42 16 20 mph 1011mb 52f 58f
4:36 17 21 mph 1011.1mb 52f 58f
4:30 18 22 mph 1011mb 52f 57f
4:24 20 22 mph 1011mb 52f 57f
4:18 16 17 mph 1011.2mb 52f 57f
4:12 14 16 mph 1011.1mb 52f 57f
4:06 13 15 mph 1011.2mb 52f 58f
4:00 13 17 mph 1011.3mb 52f 57f
3:54 14 16 mph 1011.4mb 52f 56f
3:48 15 17 mph 1011.4mb 52f 56f
3:42 14 18 mph 1011.3mb 52f 56f
3:36 14 17 mph 1011.6mb 52f 56f
3:30 14 16 mph 1011.6mb 53f 57f
3:24 14 17 mph 1011.8mb 53f 57f
3:18 15 18 mph 1011.9mb 54f 56f
3:12 15 20 mph 1011.9mb 54f 56f
3:06 17 21 mph 1012mb 54f 57f
3:00 18 22 mph 1011.9mb 54f 57f
2:54 16 18 mph 1011.8mb 54f 57f
2:48 14 16 mph 1012mb 54f 57f
2:42 13 15 mph 1012.2mb 54f 58f
2:36 13 14 mph 1012.3mb 53f 58f
2:30 11 14 mph 1012.3mb 53f 58f
2:24 10 11 mph 1012.5mb 53f 58f
2:18 8 10 mph 1012.4mb 53f 58f
2:12 8 10 mph 1012.4mb 53f 57f
2:06 10 11 mph 1012.5mb 53f 57f
2:00 9 14 mph 1012.5mb 53f 57f
1:54 10 11 mph 1012.6mb 53f 57f
1:48 9 11 mph 1012.8mb 53f 57f
1:42 9 10 mph 1012.9mb 53f 56f
1:36 10 13 mph 1013mb 53f 56f
1:30 9 11 mph 1013.1mb 53f 57f
1:24 10 11 mph 1013.2mb 53f 57f
1:18 8 10 mph 1013.3mb 53f 57f
1:12 9 11 mph 1013.2mb 53f 57f
1:06 8 9 mph 1013.4mb 53f 58f
1:00 9
mph
1013.4mb 53f 58f
12:54 8 9 mph 1013.4mb 53f 58f
12:48 9 11 mph 1013.5mb 53f 57f
12:42 9 10 mph 1013.5mb 53f 57f
12:36 7 8 mph 1013.7mb 53f 57f
12:30 7 8 mph 1013.7mb 53f 57f
12:24 8
mph
1013.7mb 53f 57f
12:18 7 9 mph 1013.8mb 53f 56f
12:12 7 8 mph 1013.8mb 53f 56f
12:06 7 8 mph 1013.9mb 53f 56f
12:00 7 9 mph 1014.1mb 53f 55f
11:54 8 9 mph 1014.1mb 53f 55f
11:48 8 10 mph 1014.2mb 53f 55f
11:42 9 10 mph 1014.2mb 53f 55f
11:36 9 13 mph 1014.2mb 53f 54f
11:30 11 14 mph 1014.3mb 53f 54f
11:24 10 11 mph 1014.3mb 53f 55f
11:18 9 13 mph 1014.4mb 53f 54f
11:12 10 13 mph 1014.4mb 53f 54f
11:06 10 13 mph 1014.4mb 52f 54f
11:00 13 14 mph 1014.5mb 52f 54f
10:54 11 14 mph 1014.6mb 52f 54f
10:48 10 13 mph 1014.7mb 52f 54f
10:42 11 14 mph 1014.8mb 52f 54f
10:36 10 13 mph 1015mb 52f 54f
10:30 10 11 mph 1015mb 52f 54f
10:24 9 10 mph 1015.2mb 52f 54f
10:18 9 10 mph 1015mb 52f 54f
10:12 8
mph
1015.1mb 52f 54f
10:06 7 8 mph 1015.2mb 52f 54f
10:00 8
mph
1015.2mb 52f 54f
9:54 7 8 mph 1015.2mb 52f 54f
9:48 7 8 mph 1015.3mb 52f 54f
9:42 7
mph
1015.4mb 52f 54f
9:36 5 6 mph 1015.5mb 52f 54f
9:30 5
mph
1015.5mb 52f 54f
9:24 5 6 mph 1015.6mb 52f 53f
9:18 3 5 mph 1015.5mb 52f 53f
9:12 3 5 mph 1015.5mb 52f 53f
9:06 3 5 mph 1015.5mb 52f 53f
9:00 5 6 mph 1015.7mb 52f 53f
8:54 5 6 mph 1015.8mb 52f 53f
8:42 7 9 mph 1015.9mb 52f 53f
8:36 6 7 mph 1015.9mb 52f 53f
8:30 7 8 mph 1015.9mb 52f 53f
8:24 6
mph
1015.9mb 52f 53f
8:18 6 7 mph 1015.9mb 52f 53f
8:12 7
mph
1015.9mb 52f 53f
8:06 5 6 mph 1016mb 52f 53f
8:00 5
mph
1015.9mb 52f 53f
7:54 3
mph
1015.9mb 52f 52f
7:48 1 2 mph 1015.8mb 51f 53f
7:42 1 2 mph 1015.9mb 51f 52f
7:36 2 3 mph 1016mb 51f 52f
7:30 2 3 mph 1016mb 51f 52f
7:24 2
mph
1015.9mb 51f 52f
7:18 2
mph
1016mb 51f 52f
7:12  -  2 mph 1016mb 51f 52f
7:06 1 2 mph 1015.9mb 51f 52f
7:00 1 2 mph 1015.8mb 51f 52f
6:54 2
mph
1016.1mb 51f 52f
6:48 1 2 mph 1016.2mb 51f 52f
6:42  -  2 mph 1016.5mb 51f 52f
6:36  -  1 mph 1016.4mb 51f 52f
6:30  -  1 mph 1016.4mb 51f 52f
6:24  -  1 mph 1016.5mb 51f 52f
6:18 2
mph
1016.7mb 51f 52f
6:12 2
mph
1016.6mb 51f 52f
6:06 1 2 mph 1016.7mb 51f 52f
6:00 1 3 mph 1016.9mb 51f 52f
5:54 2 5 mph 1017mb 51f 52f
5:48 2 3 mph 1017mb 51f 52f
5:42 2 3 mph 1017.1mb 51f 52f
5:36 3
mph
1016.9mb 51f 51f
5:30  -  2 mph 1016.9mb 51f 51f
5:24 1 2 mph 1017mb 51f 51f
5:18  -  2 mph 1016.9mb 51f 52f
5:12 2
mph
1017mb 51f 52f
5:06 2
mph
1017mb 51f 51f
5:00 1 2 mph 1016.9mb 51f 51f
4:54  -  1 mph 1016.8mb 51f 51f
4:48 1 2 mph 1017mb 51f 51f
4:42 2
mph
1017mb 51f 51f
4:36 1 2 mph 1017mb 51f 51f
4:30 2 3 mph 1017mb 51f 51f
4:24 1
mph
1017mb 51f 51f
4:18 1 2 mph 1017mb 51f 51f
4:12 1 2 mph 1017mb 51f 51f
4:06 2 3 mph 1016.9mb 51f 51f
4:00 2 3 mph 1017mb 52f 51f
3:54 3
mph
1017.1mb 51f 51f
3:48 1 2 mph 1017mb - 51f
3:42  -  2 mph 1017.1mb - 51f
3:36 2 3 mph 1017.1mb - 51f
3:30 2 3 mph 1017.1mb 52f 51f
3:24 2 3 mph 1017.2mb 52f 51f
3:18 2 3 mph 1017.4mb 52f 51f
3:12 2 5 mph 1017.4mb 52f 51f
3:06 2 3 mph 1017.5mb 52f 51f
3:00 1 2 mph 1017.7mb 52f 51f
2:54 2
mph
1017.8mb 52f 51f
2:48  -  1 mph 1017.8mb 53f 51f
2:42  -  1 mph 1017.9mb 53f 51f
2:36 1
mph
1017.9mb 53f 51f
2:30 1 2 mph 1018.1mb 54f 51f
2:24 2
mph
1018.1mb 55f 51f
2:18 2 3 mph 1018.1mb 55f 51f
2:12 2 3 mph 1018.2mb 55f 51f
2:06 2
mph
1018.3mb 55f 51f
2:00 2
mph
1018.5mb 55f 51f
1:54 1 2 mph 1018.6mb 55f 51f
1:48  -  mph 1018.7mb 55f 51f
1:42  -  mph 1018.8mb 55f 51f
1:36  -  mph 1018.9mb 55f 51f
1:30 2 3 mph 1019mb 55f 51f
1:24 2 3 mph 1019.1mb 55f 51f
1:18 2 3 mph 1019.3mb 55f 51f
1:12 1 2 mph 1019.2mb 55f 51f
1:06 2
mph
1019.3mb 55f 51f
1:00 2
mph
1019.4mb 55f 51f
12:54 2
mph
1019.5mb 55f 51f
12:48 1 2 mph 1019.6mb 55f 51f
12:42 2
mph
1019.7mb 55f 51f
12:36 1 3 mph 1019.7mb 55f 51f
12:30 2 3 mph 1019.8mb 55f 51f
12:24 2 3 mph 1019.9mb 55f 51f
12:18 2 3 mph 1020mb 55f 51f
12:12 2 3 mph 1020.1mb 55f 51f
12:06 1 2 mph 1020.1mb 55f 51f
12:00 2
mph
1020.2mb 54f 51f
Dom 05/29 11:54 2 3 mph 1020.3mb 54f 51f
11:48  -  mph 1020.3mb 54f 51f
11:42  -  mph 1020.3mb 54f 51f
11:36  -  mph 1020.3mb 54f 51f
11:30 3 5 mph 1020.4mb 54f 51f
11:24 2 5 mph 1020.4mb 54f 51f
11:18  -  mph 1020.5mb 54f 51f
11:12  -  mph 1020.5mb 54f 51f
11:06  -  mph 1020.5mb 54f 51f
10:54  -  mph - 54f 51f
10:48 3 5 mph 1020.8mb 54f -
10:42 3
mph
1020.8mb 54f -
10:36 5 6 mph 1020.9mb 54f -
10:30  -  mph 1020.9mb - -
10:24  -  mph 1021.1mb - -
10:18  -  mph - 54f -
10:12  -  mph - 54f -
10:06  -  mph - 54f -
10:00  -  mph - 54f 51f
9:54  -  mph - 54f 51f
9:48 5 6 mph 1021.3mb 54f -
9:42 3 6 mph 1021.4mb 54f -
9:36 5 6 mph 1021.4mb 54f -
9:30  -  mph 1021.3mb - -
9:24  -  mph 1021.3mb - -
9:18  -  mph - 54f 51f
9:12  -  mph - 54f 51f
9:06  -  mph - 54f 51f
9:00  -  mph 1021.4mb 54f -
8:54  -  mph 1021.5mb 54f -
8:48  -  mph 1021.6mb 54f -
8:42  -  mph 1021.6mb 54f -
8:36  -  mph 1021.7mb 54f -
8:30  -  mph 1021.7mb - -
8:24  -  mph 1021.5mb - -
8:18  -  mph - 54f 51f
8:12  -  mph - 54f 51f
8:06  -  mph - 54f 51f
8:00  -  mph 1021.6mb 53f 51f
7:54  -  mph 1021.9mb 53f 51f
7:48  -  mph 1021.8mb 53f -
7:42  -  mph 1021.8mb 53f -
7:36  -  mph 1022mb 53f -
7:30 7 9 mph - - -
7:24 8 10 mph - - -
7:18  -  mph - 53f 51f
7:12  -  mph - 53f 51f
7:06  -  mph - 53f 51f
7:00  -  mph 1021.9mb 53f -
6:54  -  mph 1021.9mb 53f -
6:48  -  mph - 53f -
6:42  -  mph - 53f -
6:36  -  mph - 53f -
6:30 7 9 mph 1022mb - -
6:24 7 10 mph 1022mb - -
6:18  -  mph - 53f 51f
6:12  -  mph - 53f 51f
6:06  -  mph - 53f 51f
6:00  -  mph - 53f -
5:54  -  mph - 53f -
5:48  -  mph - 53f -
5:42  -  mph - 53f -
5:36  -  mph - 53f -
5:30 10 13 mph 1022.2mb 53f 51f
5:24 10 13 mph 1022.2mb 53f 52f
5:18 9 13 mph 1022.2mb 53f 52f
5:12 9 13 mph 1022.3mb 53f 52f
5:06 10 13 mph 1022.4mb 53f 52f
5:00 10 11 mph 1022.5mb 53f 52f
4:54 9 13 mph 1022.6mb 53f 52f
4:48 9 13 mph 1022.6mb 53f 52f
4:42 10 13 mph 1022.6mb 53f 52f
4:36 9 13 mph 1022.7mb 53f 52f
4:30 10 14 mph 1022.7mb 53f 52f
4:24 10 14 mph 1022.6mb 53f 52f
4:18 11 14 mph 1022.7mb 53f 52f
4:12 10 14 mph 1022.8mb 53f 52f
4:06 10 14 mph 1022.7mb 53f 52f
4:00 10 15 mph 1022.8mb 53f 52f
3:54 10 14 mph 1022.8mb 53f 52f
3:48 9 14 mph 1022.9mb 53f 52f
3:42 11 14 mph 1022.8mb 53f 52f
3:36 11 14 mph 1022.8mb 54f 52f
3:30 10 16 mph 1022.9mb 54f 52f
3:24 14 18 mph 1022.9mb 54f 52f
3:18 11 16 mph 1022.9mb 54f 52f
3:12 9 15 mph 1023mb 54f 53f
3:06 10 14 mph 1023mb 54f 53f
3:00 11 15 mph 1023mb 54f 53f
2:54 10 13 mph 1023.1mb 54f 53f
2:48 10 14 mph 1023.2mb 54f 53f
2:42 10 14 mph 1023.3mb 54f 53f
2:36 11 14 mph 1023.3mb 55f 53f
2:30 10 14 mph 1023.4mb 55f 53f
2:24 9 14 mph 1023.4mb 56f 53f
2:18 10 15 mph 1023.4mb 56f 53f
2:12 10 13 mph 1023.4mb 56f 53f
2:06 9 15 mph 1023.5mb 57f 53f
2:00 13 15 mph 1023.6mb 57f 53f
1:54 11 14 mph 1023.6mb 57f 54f
1:48 9 14 mph 1023.6mb 57f 54f
1:42 10 14 mph 1023.5mb 57f 54f
1:36 11 15 mph 1023.4mb 57f 54f
1:30 9 14 mph 1023.5mb 57f 54f
1:24 10 14 mph 1023.5mb 57f 54f
1:18 10 14 mph 1023.6mb 57f 54f
1:12 11 14 mph 1023.5mb 57f 54f
1:06 11 13 mph 1023.6mb 56f 54f
1:00 10 11 mph 1023.7mb 56f 54f
12:54 10 13 mph 1023.7mb 56f 54f
12:48 10 14 mph 1023.6mb 56f 54f
12:42 10 13 mph 1023.6mb 56f 55f
12:36 11 14 mph 1023.6mb 56f 54f
12:30 10 14 mph 1023.6mb 56f 54f
12:24 10 14 mph 1023.6mb 56f 55f
12:18 10 14 mph 1023.7mb 56f 55f
12:12 11 14 mph 1023.8mb 56f 55f
12:06 10 14 mph 1023.9mb 56f 55f
12:00 11 15 mph 1023.8mb 56f 54f
11:54 13 15 mph 1023.7mb 56f 54f
11:48 13 16 mph 1023.8mb 56f 55f
11:42 11 16 mph 1023.9mb 56f 55f
11:36 14 17 mph 1023.9mb 56f 55f
11:30 11 15 mph 1024mb 56f 55f
11:24 15 18 mph 1024mb 56f 55f
11:18 13 17 mph 1024mb 56f 55f
11:12 14 17 mph 1024mb 56f 55f
11:06 14 17 mph 1023.9mb 56f 55f
11:00 14 17 mph 1024mb 56f 55f
10:54 11 15 mph 1024.1mb 56f 55f
10:48 10 16 mph 1024.2mb 56f 55f
10:42 10 15 mph 1024.1mb 56f 55f
10:36 10 14 mph 1024.2mb 56f 55f
10:30 13 14 mph 1024.3mb 56f 55f
10:24 9 14 mph 1024.2mb 56f 55f
10:18 11 16 mph 1024.2mb 56f 55f
10:12 11 15 mph 1024.2mb 56f 55f
10:06 11 14 mph 1024.1mb 55f 55f
10:00 11 14 mph 1024mb 55f 55f
9:54 11 17 mph 1024mb 55f 55f
9:48 10 15 mph 1023.9mb 55f 55f
9:42 10 14 mph 1023.9mb 55f 55f
9:36 11 14 mph 1024mb 55f 55f
9:30 11 15 mph 1024mb 55f 54f
9:24 13 14 mph 1024mb 55f 54f
9:18 11 14 mph 1023.9mb 55f 55f
9:12 10 17 mph 1023.9mb 55f 55f
9:06 13 16 mph 1023.8mb 55f 54f
9:00 13 16 mph 1023.9mb 55f 54f
8:54 11 16 mph 1023.9mb 55f 54f
8:48 14 17 mph 1023.9mb 55f 54f
8:42 9 14 mph 1023.7mb 55f 54f
8:36 10 15 mph 1023.6mb 55f 54f
8:30 11 18 mph 1023.6mb 55f 54f
8:24 10 15 mph 1023.6mb 55f 54f
8:18 11 17 mph 1023.5mb 55f 54f
8:12 10 15 mph 1023.5mb 55f 54f
8:06 11 15 mph 1023.5mb 55f 54f
8:00 10 17 mph 1023.4mb 55f 54f
7:54 14 18 mph 1023.3mb 55f 54f
7:48 9 13 mph 1023.3mb 55f 54f
7:42 10 15 mph 1023.3mb 55f 54f
7:36 13 16 mph 1023.3mb 55f 54f
7:30 11 20 mph 1023.2mb 55f 54f
7:24 10 17 mph 1023.2mb 55f 54f
7:18 13 16 mph 1023.1mb 55f 54f
7:12 11 16 mph 1023.1mb 55f 54f
7:06 9 17 mph 1023.1mb 55f 55f
7:00 10 15 mph 1023mb 55f 55f
6:54 10 15 mph 1023mb 55f 55f
6:48 13 17 mph 1022.9mb 55f 55f
6:42 10 14 mph 1023mb 55f 55f
6:36 9 14 mph 1023mb 55f 55f
6:30 10 16 mph 1022.8mb 55f 56f
6:24 9 15 mph 1022.8mb 55f 56f
6:18 9 13 mph 1022.8mb 55f 56f
6:12 10 14 mph 1022.7mb 55f 56f
6:06 9 13 mph 1022.6mb 55f 56f
6:00 9 13 mph 1022.5mb 55f 56f
5:54 10 14 mph 1022.5mb 55f 55f
5:48 10 15 mph 1022.4mb 55f 55f
5:42 9 13 mph 1022.5mb 55f 55f
5:36 9 15 mph 1022.4mb 55f 55f
5:30 10 14 mph 1022.3mb 55f 55f
5:24 11 17 mph 1022.3mb 55f 55f
5:18 9 16 mph 1022.2mb 55f 55f
5:12 10 15 mph 1022.1mb 55f 56f
5:06 11 14 mph 1022mb 55f 56f
5:00 9 13 mph 1022mb 55f 56f
4:54 10 15 mph 1022mb 55f 56f
4:48 11 15 mph 1021.8mb 55f 56f
4:42 11 15 mph 1021.7mb 55f 56f
4:36 10 14 mph 1021.7mb 55f 56f
4:30 11 14 mph 1021.8mb 55f 56f
4:24 13 16 mph 1021.8mb 55f 56f
4:18 11 16 mph 1021.8mb 55f 56f
4:12 11 17 mph 1021.8mb 55f 56f
4:06 10 15 mph 1021.8mb 55f 56f
4:00 11 15 mph 1021.7mb 55f 56f
3:54 11 15 mph 1021.6mb 55f 56f
3:48 10 14 mph 1021.6mb 55f 56f
3:42 13 20 mph 1021.5mb 55f 56f
3:36 13 17 mph 1021.5mb 55f 56f
3:30 13 14 mph 1021.5mb 55f 57f
3:24 11 15 mph 1021.5mb 55f 57f
3:18 11 15 mph 1021.5mb 55f 57f
3:12 13 17 mph 1021.4mb 55f 57f
3:06 13 17 mph 1021.5mb 55f 57f
3:00 11 17 mph 1021.5mb 54f 57f
2:54 10 14 mph 1021.5mb 54f 57f
2:48 11 14 mph 1021.4mb 54f 57f
2:42 10 14 mph 1021.4mb 54f 57f
2:36 13 16 mph 1021.3mb 54f 57f
2:30 10 15 mph 1021.3mb 54f 57f
2:24 13 16 mph 1021.2mb 55f 57f
2:18 14 18 mph 1021.1mb 55f 58f
2:12 13 15 mph 1021mb 55f 58f
2:06 10 15 mph 1020.9mb 55f 59f
2:00 11 14 mph 1020.9mb 55f 59f
1:54 10 15 mph 1020.9mb 56f 59f
1:48  -  mph 1020.7mb 57f 59f
1:42  -  mph 1020.7mb 57f 60f
1:36  -  mph 1020.7mb 58f 60f
1:30 8 10 mph 1020.5mb 58f 60f
1:24 7 11 mph 1020.4mb 59f 60f
1:18 8 10 mph 1020.2mb 59f 60f
1:12 6 9 mph 1020.3mb 59f 60f
1:06 8 10 mph 1020.4mb 59f 60f
1:00 8 9 mph 1020.4mb 59f 60f
12:54 7 9 mph 1020.3mb 58f 60f
12:48 7 9 mph 1020.3mb 58f 60f
12:42 6 9 mph 1020.4mb 58f 60f
12:36 8 9 mph 1020.3mb 58f 60f
12:30 8 10 mph 1020.2mb 58f 60f
12:24 8 9 mph 1020.1mb 58f 60f
12:18 7 9 mph 1020.2mb 58f 61f
12:12 8 11 mph 1020.1mb 58f 61f
12:06 3 5 mph 1020.2mb 58f 61f
12:00 6 8 mph 1020.1mb 58f 61f
Sáb 05/28 11:54 6 7 mph 1020mb 58f 61f
11:48 3 7 mph 1020mb 58f 61f
11:42 5 8 mph 1019.9mb 58f 61f
11:36 6 8 mph 1019.8mb 58f 61f
11:30 6 7 mph 1019.7mb 58f 61f
11:24 5 6 mph 1019.7mb 58f 62f
11:18  -  mph 1019.7mb 58f 62f
11:12  -  mph 1019.7mb 58f 62f
11:06  -  mph 1019.6mb 58f 62f
11:00  -  mph 1019.7mb 57f 62f
10:54  -  mph 1019.5mb 57f 62f
10:48 5 6 mph - 57f -
10:42 5 6 mph - 57f -
10:36 6 9 mph - 57f -
10:30 6 9 mph 1019.3mb - -
10:24 7 10 mph 1019.2mb - -
10:18  -  mph 1019.2mb 57f 62f
10:12  -  mph 1019.1mb 57f 62f
10:06  -  mph 1019.1mb 57f 62f
10:00  -  mph 1019.1mb - -
9:54  -  mph 1019.2mb - -
9:48  -  mph - 56f 63f
9:42  -  mph - 56f 63f
9:36  -  mph - 56f 63f
9:30 13 16 mph - - -
9:24 13 16 mph - - -
9:18  -  mph 1018.8mb 56f 65f
9:12  -  mph 1018.7mb 55f 66f
9:06  -  mph 1018.6mb 55f 67f
9:00  -  mph 1018.4mb - -
8:54  -  mph 1018.4mb - -
8:48  -  mph - 55f -
8:42  -  mph - 55f -
8:36  -  mph - 55f -
8:30 2
mph
- - -
8:24 2 3 mph - - -
8:18  -  mph 1017.2mb 55f -
8:12  -  mph 1017.2mb 55f -
8:06  -  mph 1017.2mb 55f -
8:00 2 3 mph - - -
7:54 3 5 mph - - -
7:48  -  mph 1017.2mb - -
7:42  -  mph 1017.2mb - -
7:36  -  mph 1017.2mb - -
7:30 2
mph
1017.2mb - -
7:24  -  1 mph 1017.2mb - -
7:18  -  mph - 55f 68f
7:12  -  mph - 55f 69f
7:06  -  mph - 55f 69f
7:00  -  2 mph - - -
6:54 2 3 mph - - -
6:48 1 2 mph - - -
6:42 2
mph
- - -
6:36 2
mph
- - -
6:30  -  mph 1017.2mb 54f -
6:24  -  mph 1017.2mb 54f -
6:18  -  mph 1017.1mb 54f 69f
6:12  -  mph 1017.1mb 54f 68f
6:06  -  mph 1017.2mb 54f 68f
6:00 3 5 mph - - -
5:54 3 6 mph - - -
5:48  -  mph 1017.1mb 54f 69f
5:42  -  mph 1017mb 54f 68f
5:36  -  mph 1017mb 54f 68f
5:30 5 6 mph 1016.9mb 54f 68f
5:24 3 6 mph 1016.8mb 54f 68f
5:18 5 7 mph 1016.8mb 54f 69f
5:12 5 7 mph 1016.8mb 54f 68f
5:06 5 7 mph 1016.7mb 54f 69f
5:00 6 7 mph 1016.7mb 54f 69f
4:54 6 7 mph 1016.6mb 54f 68f
4:48 7
mph
1016.5mb 54f 68f
4:42 6 8 mph 1016.5mb 54f 68f
4:36 6 8 mph 1016.5mb 54f 68f
4:30 7 8 mph 1016.5mb 54f 67f
4:24 6 7 mph 1016.6mb 54f 69f
4:18 5 7 mph 1016.6mb 54f 68f
4:12 5 6 mph 1016.6mb 54f 67f
4:06 3 6 mph 1016.7mb 54f 69f
4:00 6
mph
1016.7mb 54f 67f
3:54 5 7 mph 1016.7mb 54f 68f
3:48 5 7 mph 1016.6mb 54f 68f
3:42 6 8 mph 1016.6mb 54f 67f
3:36 3 5 mph 1016.6mb 54f 68f
3:30 2 5 mph 1016.7mb 54f 67f
3:24 5 7 mph 1016.7mb 54f 67f
3:18 5 6 mph 1016.7mb 54f 67f
3:12 3 5 mph 1016.7mb 53f 67f
3:06 3 5 mph 1016.6mb 53f 69f
3:00 3
mph
1016.6mb 53f 69f
2:54 2 3 mph 1016.6mb 53f 69f
2:48 5
mph
1016.7mb 53f 68f
2:42 2 3 mph 1016.8mb 53f 67f
2:36 3 6 mph 1016.8mb 53f 67f
2:30 3 6 mph 1016.7mb 53f 66f
2:24 3 6 mph 1016.8mb 53f 66f
2:18 5 6 mph 1016.8mb 53f 66f
2:12 2 3 mph 1016.9mb 53f 66f
2:06 3 6 mph 1016.8mb 54f 66f
2:00 5 7 mph 1016.9mb 54f 65f
1:54 6 7 mph 1016.9mb 54f 65f
1:48 3 6 mph 1016.9mb 54f 65f
1:42 6 7 mph 1017mb 55f 64f
1:36 5 6 mph 1017mb 55f 64f
1:30 6 7 mph 1016.9mb 55f 64f
1:24 5 6 mph 1017mb 55f 64f
1:18 5 7 mph 1017mb 55f 64f
1:12 6 8 mph 1017.1mb 55f 64f
1:06 5 6 mph 1017.1mb 55f 64f
1:00 5 6 mph 1017.1mb 55f 64f
12:54 5 6 mph 1017.1mb 55f 64f
12:48 5 6 mph 1017.1mb 55f 62f
12:42 5 7 mph 1017.2mb 55f 63f
12:36 6 7 mph 1017.3mb 55f 62f
12:30 6 8 mph 1017.2mb 55f 62f
12:24 7 9 mph 1017.2mb 55f 62f
12:18 7 8 mph 1017.3mb 55f 62f
12:12 7 8 mph 1017.3mb 55f 63f
12:06 7 8 mph 1017.4mb 55f 63f
12:00 7 8 mph 1017.4mb 55f 63f
11:54 6 7 mph 1017.4mb 54f 63f
11:48 7
mph
1017.4mb 54f 63f
11:42 6 7 mph 1017.4mb 54f 62f
11:36 7
mph
1017.4mb 54f 63f
11:30 6 7 mph 1017.4mb 54f 63f
11:24 6
mph
1017.4mb 54f 63f
11:18 5 6 mph 1017.5mb 54f 63f
11:12 5 6 mph 1017.5mb 54f 62f
11:06 5 6 mph 1017.5mb 54f 62f
11:00 6
mph
1017.5mb 54f 62f
10:54 6
mph
1017.5mb 54f 62f
10:48 6 7 mph 1017.5mb 54f 62f
10:42 6
mph
1017.5mb 54f 62f
10:36 6 7 mph 1017.5mb 54f 62f
10:30 5 6 mph 1017.5mb 54f 61f
10:24 5 6 mph 1017.5mb 54f 61f
10:18 6 7 mph 1017.4mb 54f 60f
10:12 5 6 mph 1017.4mb 54f 60f
10:06 6
mph
1017.4mb 54f 60f
10:00 5 8 mph 1017.4mb 53f 59f
9:54 6 7 mph 1017.3mb 53f 58f
9:48 6 7 mph 1017.3mb 53f 59f
9:42 6
mph
1017.3mb 53f 59f
9:36 5 6 mph 1017.3mb 53f 59f
9:30 6 8 mph 1017.3mb 53f 59f
9:24 7 8 mph 1017.2mb 53f 59f
9:18 7 8 mph 1017.2mb 53f 60f
9:12 6 7 mph 1017.2mb 53f 61f
9:06 5 6 mph 1017.1mb 53f 62f
9:00 3 5 mph 1017.1mb 53f 63f
8:54 3 6 mph 1017.1mb 53f 62f
8:48 5 6 mph 1017.1mb 53f 61f
8:42 5 6 mph 1017mb 53f 62f
8:36 3 5 mph 1017.1mb 52f 62f
8:30 1
mph
1017.1mb 52f 64f
8:24  -  1 mph 1017.1mb 52f 63f
8:18  -  1 mph 1017.1mb 52f 61f
8:12  -  2 mph 1017.2mb 52f 59f
8:06 2 3 mph 1017mb 52f 57f
8:00 3
mph
1017mb 52f 57f
7:54 2 5 mph 1016.9mb 52f 57f
7:48 3 5 mph 1016.9mb 52f 58f
7:42 2 3 mph 1016.8mb 52f 57f
7:36 2
mph
1016.7mb 52f 59f
7:30  -  1 mph 1016.8mb 52f 59f
7:24  -  2 mph 1016.8mb 52f 58f
7:18 1 2 mph 1016.7mb 52f 57f
7:12 1 3 mph 1016.8mb 52f 57f
7:06 2 3 mph 1016.9mb 52f 57f
7:00 2 3 mph 1016.9mb 52f 56f
6:54 2 5 mph 1016.8mb 52f 56f
6:48 2 3 mph 1016.8mb 52f 56f
6:42 2 3 mph 1016.8mb 52f 55f
6:36 3 5 mph 1016.9mb 52f 55f
6:30 5
mph
1016.8mb 52f 54f
6:24 3
mph
1016.7mb 51f 54f
6:18  -  1 mph 1016.6mb 51f 54f
6:12 1 3 mph 1016.5mb 51f 54f
6:06 3
mph
1016.4mb 51f 54f
6:00 1 2 mph 1016.3mb 51f 54f
5:54 2 3 mph 1016.3mb 51f 54f
5:48 2
mph
1016.3mb 51f 53f
5:42 1 2 mph 1016.2mb 51f 53f
5:36 1 2 mph 1016.2mb 51f 53f
5:30 1 2 mph 1016.2mb 51f 53f
5:24 2
mph
1016.3mb 51f 53f
5:18 2 3 mph 1016.1mb 51f 53f
5:12 1 2 mph 1016.1mb 51f 53f
5:06 1 2 mph 1015.9mb 51f 53f
5:00  -  1 mph 1015.9mb 51f 53f
4:54  -  2 mph 1016mb 51f 53f
4:48 1 3 mph 1015.9mb 51f 53f
4:42 1 2 mph 1015.8mb 51f 53f
4:36  -  1 mph 1015.7mb 51f 53f
4:30 1 2 mph 1015.7mb 51f 53f
4:24 2 3 mph 1015.7mb 51f 53f
4:18 1 2 mph 1015.6mb 51f 53f
4:12 2 3 mph 1015.6mb 51f 53f
4:06 3 6 mph 1015.5mb 51f 53f
4:00 5 6 mph 1015.4mb 51f 53f
3:54 5 6 mph 1015.3mb 51f 53f
3:48 5 6 mph 1015.4mb 51f 53f
3:42 3 5 mph 1015.5mb 51f 53f
3:36 2 3 mph 1015.5mb 51f 53f
3:30 2 3 mph 1015.3mb 51f 53f
3:24 2
mph
1015.4mb 51f 53f
3:18 1 5 mph 1015.4mb 51f 53f
3:12 5
mph
1015.4mb 51f 53f
3:06 2 3 mph 1015.4mb 51f 53f
3:00 2 3 mph 1015.4mb 51f 53f
2:54 3 5 mph 1015.5mb 51f 53f
2:48 5
mph
1015.5mb 51f 53f
2:42 5 6 mph 1015.5mb 51f 53f
2:36 5
mph
1015.5mb 51f 53f
2:30 3 5 mph 1015.6mb 51f 53f
2:24 5
mph
1015.6mb 51f 53f
2:18  -  mph 1015.7mb 51f 53f
2:12  -  mph 1015.7mb 51f 53f
2:06  -  mph 1015.8mb 51f 53f
2:00  -  mph 1015.8mb 51f 53f
1:54  -  mph 1015.9mb 51f 53f
1:48  -  2 mph 1015.8mb 51f 53f
1:42  -  1 mph 1015.7mb 51f 53f
1:36  -  1 mph 1015.7mb 51f 53f
1:30 1 3 mph 1015.7mb 51f 53f
1:24 2
mph
1015.6mb 51f 53f
1:18  -  1 mph 1015.8mb 52f 53f
1:12  -  1 mph 1015.8mb 52f 53f
1:06  -  1 mph 1015.9mb 52f 53f
1:00  -  1 mph 1015.9mb 52f 53f
12:54  -  1 mph 1015.9mb 53f 53f
12:48 1 2 mph 1016mb 53f 53f
12:42  -  1 mph 1015.9mb 53f 53f
12:36  -  mph 1015.9mb 54f 53f
12:30  -  1 mph 1016mb 55f 53f
12:24  -  2 mph 1016mb 56f 53f
12:18  -  mph 1016mb 57f 53f
12:12  -  2 mph 1016mb 57f 53f
12:06  -  1 mph 1016.1mb 57f 53f
12:00  -  1 mph 1016.1mb 57f 53f
Sex 05/27 11:54 1 2 mph 1016.2mb 57f 53f
11:48  -  mph 1016.2mb 57f 53f
11:42  -  mph 1016.1mb 57f 53f
11:36  -  mph 1016.2mb 57f 53f
11:30 3
mph
1016.3mb 57f 53f
11:24  -  2 mph 1016.1mb 57f 53f
11:18  -  mph 1015.9mb 57f -
11:12  -  mph 1015.9mb 57f -
11:06  -  mph 1016mb 57f -
11:00 2
mph
1016mb 57f -
10:54 1 2 mph 1016mb 57f -
10:48  -  mph - 57f -
10:42  -  mph - 57f -
10:36  -  mph - 57f -
10:30  -  mph 1015.9mb - -
10:24  -  mph 1015.9mb - -
10:18  -  mph 1016mb - 53f
10:12  -  mph 1016mb - 53f
10:06  -  mph 1016mb - 53f
10:00 3
mph
1016mb - -
9:54 2 3 mph 1016.1mb - -
9:48  -  mph 1016.2mb 57f -
9:42  -  mph 1016.2mb 57f -
9:36  -  mph 1016.2mb 57f -
9:30 2 5 mph 1016.2mb 56f -
9:24 3 5 mph 1016.2mb 56f -
9:18  -  mph 1016.1mb 56f -
9:12  -  mph 1016mb 56f -
9:06  -  mph 1016.1mb 56f -
9:00 5 6 mph 1016mb - -
8:54 3 6 mph 1016.1mb - -
8:48  -  mph 1016.1mb 56f -
8:42  -  mph 1016.1mb 56f -
8:36  -  mph 1016.2mb 56f -
8:30 6 7 mph 1016.1mb 56f -
8:24 6 7 mph 1016mb 56f -
8:18  -  mph - 56f 53f
8:12  -  mph - 55f 53f
8:06  -  mph - 55f 53f
8:00  -  mph 1015.9mb 55f -
7:54  -  mph 1015.9mb 55f -
7:48  -  mph 1016mb 55f -
7:42  -  mph 1016mb 55f -
7:36  -  mph 1016.1mb 55f -
7:30 5 6 mph 1015.9mb 55f -
7:24 5 6 mph 1015.9mb 55f -
7:18  -  mph 1015.9mb 55f 54f
7:12  -  mph 1016mb 55f 54f
7:06  -  mph 1016.1mb 55f 54f
7:00 5 6 mph - - -
6:54 3 5 mph - - -
6:48 3 5 mph - - -
6:42 3 6 mph - - -
6:36 5 6 mph - - -
6:30 5 6 mph 1016.3mb 55f -
6:24 5 6 mph 1016.2mb 55f -
6:18  -  mph 1016.3mb 54f -
6:12  -  mph 1016.3mb 54f -
6:06  -  mph 1016.4mb 54f -
6:00  -  mph 1016.5mb - -
5:54  -  mph 1016.6mb - -
5:48  -  mph 1016.6mb 54f -
5:42  -  mph 1016.7mb 54f -
5:36  -  mph 1016.8mb 54f -
5:30 7 9 mph 1016.8mb 54f 55f
5:24 6 8 mph 1016.8mb 54f 55f
5:18 6 8 mph 1017mb 54f 55f
5:12 7 8 mph 1017mb 54f 56f
5:06 7 8 mph 1017mb 53f 56f
5:00 6 7 mph 1017mb 53f 56f
4:54 6 8 mph 1017mb 53f 56f
4:48 6 8 mph 1016.9mb 53f 56f
4:42 6 8 mph 1016.9mb 54f 56f
4:36 6 8 mph 1017mb 53f 56f
4:30 6 8 mph 1017mb 53f 56f
4:24 7 8 mph 1017mb 53f 56f
4:18 7 9 mph 1017.1mb 53f 56f
4:12 7 9 mph 1017.1mb 53f 56f
4:06 7 9 mph 1017.1mb 53f 56f
4:00 8 10 mph 1017.2mb 53f 56f
3:54 8 10 mph 1017.3mb 53f 56f
3:48 7 9 mph 1017.5mb 53f 56f
3:42 7 9 mph 1017.5mb 53f 56f
3:36 8 11 mph 1017.6mb 53f 56f
3:30 8 13 mph 1017.6mb 53f 56f
3:24 10 13 mph 1017.7mb 53f 55f
3:18 11 14 mph 1017.6mb 53f 55f
3:12 11 15 mph 1017.5mb 53f 55f
3:06 11 14 mph 1017.5mb 53f 55f
3:00 11 14 mph 1017.7mb 53f 55f
2:54 11 14 mph 1017.8mb 53f 55f
2:48 13 14 mph 1017.9mb 53f 55f
2:42 13 15 mph 1017.9mb 53f 55f
2:36 13 16 mph 1017.9mb 53f 55f
2:30 13 16 mph 1017.9mb 53f 55f
2:24 14 16 mph 1017.9mb 53f 55f
2:18 14 17 mph 1017.9mb 53f 55f
2:12 15 17 mph 1018mb 53f 55f
2:06 14 20 mph 1018mb 53f 55f
2:00 15 17 mph 1018.1mb 53f 55f
1:54 16 18 mph 1018.1mb 53f 56f
1:48 14 18 mph 1018.2mb 53f 56f
1:42 14 17 mph 1018.4mb 53f 56f
1:36 14 17 mph 1018.5mb 52f 56f
1:30 14 17 mph 1018.6mb 53f 56f
1:24 15 17 mph 1018.6mb 53f 56f
1:18 15 17 mph 1018.7mb 53f 56f
1:12 14 17 mph 1018.7mb 53f 56f
1:06 14 16 mph 1018.7mb 53f 56f
1:00 11 15 mph 1018.8mb 53f 57f
12:54 13 15 mph 1018.9mb 53f 56f
12:48 10 14 mph 1018.9mb 53f 57f
12:42 8 13 mph 1019mb 53f 59f
12:36 8 13 mph 1019.1mb 54f 60f
12:30 8 13 mph 1019.3mb 54f 60f
12:24 9 13 mph 1019.4mb 54f 60f
12:18 6 11 mph 1019.4mb 54f 60f
12:12 10 13 mph 1019.3mb 54f 58f
12:06 10 14 mph 1019.3mb 54f 57f
12:00 10 14 mph 1019.4mb 54f 56f
11:54 11 14 mph 1019.4mb 53f 56f
11:48 10 15 mph 1019.4mb 53f 56f
11:42 11 14 mph 1019.4mb 53f 56f
11:36 11 14 mph 1019.2mb 53f 56f
11:30 9 11 mph 1019.2mb 53f 57f
11:24 9 13 mph 1019.3mb 53f 57f
11:18 10 13 mph 1019.4mb 53f 56f
11:12 9 11 mph 1019.6mb 53f 56f
11:06 8 11 mph 1019.7mb 53f 57f
11:00 7 11 mph 1019.9mb 53f 57f
10:54 9 11 mph 1019.7mb 53f 56f
10:48 8 11 mph 1019.7mb 53f 57f
10:42 8 10 mph 1019.8mb 53f 57f
10:36 7 10 mph 1020mb 53f 57f
10:30 8 11 mph 1020mb 53f 57f
10:24 9 10 mph 1020mb 53f 57f
10:18 8 10 mph 1020.1mb 53f 57f
10:12 7 10 mph 1020mb 53f 57f
10:06 8 10 mph 1020mb 53f 56f
10:00 8 9 mph 1020.2mb 53f 56f
9:54 7 9 mph 1020.3mb 53f 56f
9:48 8 10 mph 1020.2mb 53f 56f
9:42 9 10 mph 1020.1mb 53f 56f
9:36 8 10 mph 1020.1mb 53f 56f
9:30 8 10 mph 1020.1mb 53f 56f
9:24 8 10 mph 1020.1mb 53f 56f
9:18 9 11 mph 1019.9mb 53f 56f
9:12 9 11 mph 1019.9mb 53f 56f
9:06 7 10 mph 1020.1mb 53f 56f
9:00 10 11 mph 1020mb 52f 56f
8:54 9 11 mph 1020.1mb 52f 56f
8:48 7 11 mph 1020mb 52f 56f
8:42 8 10 mph 1020mb 52f 56f
8:36 8 10 mph 1020.2mb 52f 56f
8:30 7 10 mph 1020.3mb 52f 56f
8:24 8 11 mph 1020.1mb 52f 55f
8:18 9 13 mph 1019.8mb 52f 55f
8:12 8 13 mph 1019.8mb 52f 55f
8:06 8 13 mph 1019.8mb 52f 55f
8:00 8 13 mph 1019.9mb 52f 55f
7:54 9 13 mph 1020mb 52f 55f
7:48 9 13 mph 1020.1mb 52f 55f
7:42 11 15 mph 1019.8mb 52f 55f
7:36 10 13 mph 1019.8mb 52f 55f
7:30 9 14 mph 1019.9mb 51f 55f
7:24 9 11 mph 1019.9mb 51f 55f
7:18 8 10 mph 1020.1mb 51f 55f
7:12 9 10 mph 1020mb 51f 55f
7:06 9 13 mph 1019.8mb 51f 55f
7:00 9 11 mph 1019.8mb 51f 55f
6:54 9 11 mph 1020mb 51f 56f
6:48 7 10 mph 1020.1mb 51f 56f
6:42 7 10 mph 1020.1mb 51f 56f
6:36 7 10 mph 1020.2mb 51f 56f
6:30 7 9 mph 1020.3mb 51f 56f
6:24 6 9 mph 1020.3mb 51f 56f
6:18 7 10 mph 1020.3mb 51f 56f
6:12 6 9 mph 1020.3mb 51f 56f
6:06 8 10 mph 1020.1mb 51f 56f
6:00 9 11 mph 1020mb 51f 56f
5:54 7 9 mph 1020mb 51f 56f
5:48 7 8 mph 1020mb 51f 56f
5:42 7 9 mph 1020mb 51f 56f
5:36 7 8 mph 1020mb 51f 56f
5:30 6 8 mph 1019.9mb 51f 56f
5:24 7 8 mph 1019.9mb 51f 55f
5:18 7 9 mph 1020mb 51f 56f
5:12 7 10 mph 1019.9mb 51f 56f
5:06 8 9 mph 1019.9mb 51f 56f
5:00 8 10 mph 1019.9mb 51f 56f
4:54 7 10 mph 1020mb 51f 56f
4:48 7 9 mph 1020mb 51f 56f
4:42 7 8 mph 1020mb 51f 56f
4:36 6 10 mph 1020.1mb 51f 56f
4:30 7 9 mph 1019.9mb 51f 56f
4:24 7 9 mph 1019.9mb 51f 56f
4:18 6 8 mph 1019.8mb 50f 56f
4:06 7 8 mph 1019.9mb 50f 56f
4:00 8 11 mph 1019.9mb 50f 56f
3:54 8 11 mph 1019.9mb 50f 56f
3:48 8 11 mph 1019.8mb 50f 56f
3:42 9 11 mph 1019.7mb 50f 56f
3:36 9 11 mph 1019.6mb 51f 56f
3:30 7 9 mph 1019.6mb 51f 56f
3:24 7 10 mph 1019.6mb 51f 57f
3:18 8 10 mph 1019.7mb 51f 57f
3:12 9 11 mph 1019.8mb 51f 58f
3:06 8 11 mph 1019.9mb 51f 57f
3:00 6 8 mph 1019.9mb 51f 56f
2:54 7 8 mph 1019.9mb 51f 56f
2:48 7 9 mph 1019.8mb 51f 56f
2:42 7 9 mph 1019.9mb 51f 56f
2:36 7 9 mph 1019.9mb 51f 56f
2:30 8 11 mph 1019.9mb 51f 56f
2:24 8 10 mph 1019.9mb 51f 57f
2:18 7 9 mph 1019.9mb 51f 57f
2:12 7 9 mph 1019.8mb 51f 57f
2:06 8 10 mph 1019.8mb 51f 57f
2:00  -  mph 1019.6mb 51f 57f
1:54  -  mph 1019.7mb 51f 57f
1:48  -  mph 1019.8mb 51f 57f
1:42  -  mph 1019.8mb 51f 57f
1:36  -  mph 1019.7mb 51f 57f
1:30 6 9 mph 1019.7mb 51f 57f
1:24 6 7 mph 1019.7mb 51f 57f
1:18 6 7 mph 1019.7mb 51f 57f
1:12 2 5 mph 1019.8mb 51f 58f
1:06 5 6 mph 1019.7mb 51f 58f
1:00 2 5 mph 1019.6mb 51f 57f
12:54 5
mph
1019.5mb 51f 57f
12:48 2 5 mph 1019.7mb 50f 57f
12:42 3 5 mph 1019.6mb 50f 57f
12:36 3
mph
1019.8mb 50f 58f
12:30 2 5 mph 1019.7mb 50f 58f
12:24 2
mph
1019.7mb 50f 57f
12:18 2 3 mph 1019.6mb 50f 58f
12:12 1
mph
1019.7mb 50f 57f
12:06  -  1 mph 1019.7mb 51f 58f
12:00  -  3 mph 1019.7mb 51f 58f
Qui 05/26 11:54 3
mph
1019.7mb 52f 58f
11:48  -  mph 1019.6mb 53f 58f
11:42  -  mph 1019.8mb 54f 58f
11:36  -  mph 1019.7mb 56f 58f
11:30 2 3 mph 1019.8mb 57f 58f
11:24 3 5 mph 1019.9mb 57f 58f
11:18  -  mph 1019.7mb 57f -
11:12  -  mph 1019.8mb 57f -
11:06  -  mph 1019.6mb 57f -
11:00  -  mph 1019.6mb 57f -
10:54  -  mph 1019.5mb 57f -
10:48 6 9 mph 1019.4mb - -
10:42 5 7 mph 1019.4mb - -
10:36 3 5 mph 1019.6mb - -
10:30 5 7 mph - - -
10:24 5 6 mph - - -